sensor_id;sensor_type;location;lat;lon;timestamp;P1;durP1;ratioP1;P2;durP2;ratioP2
50249;SDS011;36133;42.522;27.456;2023-05-20T00:01:57;13.50;;;8.25;;
50249;SDS011;36133;42.522;27.456;2023-05-20T00:04:25;14.13;;;8.50;;
50249;SDS011;36133;42.522;27.456;2023-05-20T00:06:51;12.68;;;7.43;;
50249;SDS011;36133;42.522;27.456;2023-05-20T00:09:17;11.27;;;7.22;;
50249;SDS011;36133;42.522;27.456;2023-05-20T00:11:42;11.90;;;8.48;;
50249;SDS011;36133;42.522;27.456;2023-05-20T00:14:08;11.35;;;7.72;;
50249;SDS011;36133;42.522;27.456;2023-05-20T00:16:33;13.63;;;8.65;;
50249;SDS011;36133;42.522;27.456;2023-05-20T00:18:59;11.25;;;8.35;;
50249;SDS011;36133;42.522;27.456;2023-05-20T00:21:24;11.18;;;7.57;;
50249;SDS011;36133;42.522;27.456;2023-05-20T00:23:50;14.48;;;8.30;;
50249;SDS011;36133;42.522;27.456;2023-05-20T00:26:16;12.45;;;7.30;;
50249;SDS011;36133;42.522;27.456;2023-05-20T00:28:41;13.10;;;7.88;;
50249;SDS011;36133;42.522;27.456;2023-05-20T00:31:07;13.55;;;7.18;;
50249;SDS011;36133;42.522;27.456;2023-05-20T00:33:32;14.32;;;7.45;;
50249;SDS011;36133;42.522;27.456;2023-05-20T00:36:00;12.10;;;9.18;;
50249;SDS011;36133;42.522;27.456;2023-05-20T00:38:29;11.10;;;7.88;;
50249;SDS011;36133;42.522;27.456;2023-05-20T00:40:54;12.48;;;7.53;;
50249;SDS011;36133;42.522;27.456;2023-05-20T00:43:20;12.13;;;8.68;;
50249;SDS011;36133;42.522;27.456;2023-05-20T00:45:46;10.85;;;7.85;;
50249;SDS011;36133;42.522;27.456;2023-05-20T00:48:12;17.23;;;8.48;;
50249;SDS011;36133;42.522;27.456;2023-05-20T00:50:38;14.55;;;8.40;;
50249;SDS011;36133;42.522;27.456;2023-05-20T00:53:04;15.30;;;8.88;;
50249;SDS011;36133;42.522;27.456;2023-05-20T00:55:30;14.45;;;8.75;;
50249;SDS011;36133;42.522;27.456;2023-05-20T00:57:56;11.50;;;8.50;;
50249;SDS011;36133;42.522;27.456;2023-05-20T01:00:22;12.80;;;8.10;;
50249;SDS011;36133;42.522;27.456;2023-05-20T01:02:48;12.52;;;9.60;;
50249;SDS011;36133;42.522;27.456;2023-05-20T01:05:14;12.25;;;8.65;;
50249;SDS011;36133;42.522;27.456;2023-05-20T01:07:39;14.40;;;9.73;;
50249;SDS011;36133;42.522;27.456;2023-05-20T01:10:05;13.57;;;8.23;;
50249;SDS011;36133;42.522;27.456;2023-05-20T01:12:36;14.55;;;9.43;;
50249;SDS011;36133;42.522;27.456;2023-05-20T01:15:07;13.20;;;8.32;;
50249;SDS011;36133;42.522;27.456;2023-05-20T01:17:37;16.75;;;8.73;;
50249;SDS011;36133;42.522;27.456;2023-05-20T01:20:11;12.88;;;8.23;;
50249;SDS011;36133;42.522;27.456;2023-05-20T01:22:59;11.73;;;8.27;;
50249;SDS011;36133;42.522;27.456;2023-05-20T01:25:26;12.50;;;7.93;;
50249;SDS011;36133;42.522;27.456;2023-05-20T01:27:53;13.23;;;8.30;;
50249;SDS011;36133;42.522;27.456;2023-05-20T01:30:22;11.05;;;8.25;;
50249;SDS011;36133;42.522;27.456;2023-05-20T01:32:54;13.05;;;8.32;;
50249;SDS011;36133;42.522;27.456;2023-05-20T01:35:24;10.70;;;8.32;;
50249;SDS011;36133;42.522;27.456;2023-05-20T01:37:51;15.05;;;7.78;;
50249;SDS011;36133;42.522;27.456;2023-05-20T01:40:17;12.35;;;8.20;;
50249;SDS011;36133;42.522;27.456;2023-05-20T01:42:43;12.88;;;7.75;;
50249;SDS011;36133;42.522;27.456;2023-05-20T01:45:10;15.70;;;8.40;;
50249;SDS011;36133;42.522;27.456;2023-05-20T01:47:36;14.23;;;7.80;;
50249;SDS011;36133;42.522;27.456;2023-05-20T01:50:02;11.45;;;7.65;;
50249;SDS011;36133;42.522;27.456;2023-05-20T01:52:28;10.52;;;8.00;;
50249;SDS011;36133;42.522;27.456;2023-05-20T01:54:53;12.40;;;8.27;;
50249;SDS011;36133;42.522;27.456;2023-05-20T01:57:22;15.48;;;7.57;;
50249;SDS011;36133;42.522;27.456;2023-05-20T01:59:48;15.10;;;8.60;;
50249;SDS011;36133;42.522;27.456;2023-05-20T02:02:14;14.63;;;9.00;;
50249;SDS011;36133;42.522;27.456;2023-05-20T02:04:41;11.70;;;8.00;;
50249;SDS011;36133;42.522;27.456;2023-05-20T02:07:12;12.00;;;8.65;;
50249;SDS011;36133;42.522;27.456;2023-05-20T02:09:38;12.23;;;8.70;;
50249;SDS011;36133;42.522;27.456;2023-05-20T02:12:04;12.00;;;8.13;;
50249;SDS011;36133;42.522;27.456;2023-05-20T02:14:30;14.80;;;8.43;;
50249;SDS011;36133;42.522;27.456;2023-05-20T02:16:56;14.15;;;8.45;;
50249;SDS011;36133;42.522;27.456;2023-05-20T02:19:21;12.60;;;8.63;;
50249;SDS011;36133;42.522;27.456;2023-05-20T02:21:48;13.02;;;8.68;;
50249;SDS011;36133;42.522;27.456;2023-05-20T02:24:14;13.30;;;8.45;;
50249;SDS011;36133;42.522;27.456;2023-05-20T02:26:40;15.73;;;9.48;;
50249;SDS011;36133;42.522;27.456;2023-05-20T02:29:09;16.80;;;8.52;;
50249;SDS011;36133;42.522;27.456;2023-05-20T02:31:34;17.92;;;8.98;;
50249;SDS011;36133;42.522;27.456;2023-05-20T02:34:00;12.82;;;8.70;;
50249;SDS011;36133;42.522;27.456;2023-05-20T02:36:25;11.25;;;7.97;;
50249;SDS011;36133;42.522;27.456;2023-05-20T02:38:52;19.65;;;9.70;;
50249;SDS011;36133;42.522;27.456;2023-05-20T02:41:20;13.68;;;8.65;;
50249;SDS011;36133;42.522;27.456;2023-05-20T02:43:46;10.00;;;8.18;;
50249;SDS011;36133;42.522;27.456;2023-05-20T02:46:12;14.05;;;9.00;;
50249;SDS011;36133;42.522;27.456;2023-05-20T02:48:42;14.07;;;8.95;;
50249;SDS011;36133;42.522;27.456;2023-05-20T02:51:08;14.30;;;9.60;;
50249;SDS011;36133;42.522;27.456;2023-05-20T02:53:33;18.90;;;11.07;;
50249;SDS011;36133;42.522;27.456;2023-05-20T02:55:59;11.40;;;8.20;;
50249;SDS011;36133;42.522;27.456;2023-05-20T02:58:25;16.95;;;10.55;;
50249;SDS011;36133;42.522;27.456;2023-05-20T03:00:51;14.13;;;8.55;;
50249;SDS011;36133;42.522;27.456;2023-05-20T03:03:18;13.25;;;9.20;;
50249;SDS011;36133;42.522;27.456;2023-05-20T03:05:44;14.82;;;9.40;;
50249;SDS011;36133;42.522;27.456;2023-05-20T03:08:10;16.48;;;9.50;;
50249;SDS011;36133;42.522;27.456;2023-05-20T03:10:36;18.00;;;10.32;;
50249;SDS011;36133;42.522;27.456;2023-05-20T03:13:03;15.80;;;8.85;;
50249;SDS011;36133;42.522;27.456;2023-05-20T03:15:33;12.13;;;9.25;;
50249;SDS011;36133;42.522;27.456;2023-05-20T03:17:59;14.40;;;9.32;;
50249;SDS011;36133;42.522;27.456;2023-05-20T03:20:25;14.75;;;9.40;;
50249;SDS011;36133;42.522;27.456;2023-05-20T03:22:53;15.25;;;8.60;;
50249;SDS011;36133;42.522;27.456;2023-05-20T03:25:18;13.90;;;9.52;;
50249;SDS011;36133;42.522;27.456;2023-05-20T03:27:44;16.73;;;9.85;;
50249;SDS011;36133;42.522;27.456;2023-05-20T03:30:10;17.58;;;11.20;;
50249;SDS011;36133;42.522;27.456;2023-05-20T03:32:36;17.92;;;9.52;;
50249;SDS011;36133;42.522;27.456;2023-05-20T03:35:02;14.55;;;9.23;;
50249;SDS011;36133;42.522;27.456;2023-05-20T03:37:27;15.10;;;9.05;;
50249;SDS011;36133;42.522;27.456;2023-05-20T03:39:53;15.63;;;9.60;;
50249;SDS011;36133;42.522;27.456;2023-05-20T03:42:18;12.75;;;8.30;;
50249;SDS011;36133;42.522;27.456;2023-05-20T03:44:44;15.10;;;9.07;;
50249;SDS011;36133;42.522;27.456;2023-05-20T03:47:09;15.75;;;8.98;;
50249;SDS011;36133;42.522;27.456;2023-05-20T03:49:35;13.55;;;8.57;;
50249;SDS011;36133;42.522;27.456;2023-05-20T03:52:01;13.70;;;9.40;;
50249;SDS011;36133;42.522;27.456;2023-05-20T03:54:27;12.18;;;9.20;;
50249;SDS011;36133;42.522;27.456;2023-05-20T03:56:55;12.57;;;8.68;;
50249;SDS011;36133;42.522;27.456;2023-05-20T03:59:21;13.52;;;8.93;;
50249;SDS011;36133;42.522;27.456;2023-05-20T04:01:47;18.40;;;9.80;;
50249;SDS011;36133;42.522;27.456;2023-05-20T04:04:12;13.98;;;9.18;;
50249;SDS011;36133;42.522;27.456;2023-05-20T04:06:38;15.10;;;9.82;;
50249;SDS011;36133;42.522;27.456;2023-05-20T04:09:07;15.55;;;8.77;;
50249;SDS011;36133;42.522;27.456;2023-05-20T04:11:33;16.13;;;8.85;;
50249;SDS011;36133;42.522;27.456;2023-05-20T04:13:58;13.48;;;9.23;;
50249;SDS011;36133;42.522;27.456;2023-05-20T04:16:24;17.27;;;9.48;;
50249;SDS011;36133;42.522;27.456;2023-05-20T04:18:50;12.30;;;8.60;;
50249;SDS011;36133;42.522;27.456;2023-05-20T04:21:16;13.15;;;9.45;;
50249;SDS011;36133;42.522;27.456;2023-05-20T04:23:43;16.90;;;9.43;;
50249;SDS011;36133;42.522;27.456;2023-05-20T04:26:08;14.27;;;9.18;;
50249;SDS011;36133;42.522;27.456;2023-05-20T04:28:34;17.13;;;9.30;;
50249;SDS011;36133;42.522;27.456;2023-05-20T04:31:02;14.98;;;8.98;;
50249;SDS011;36133;42.522;27.456;2023-05-20T04:33:31;12.95;;;8.80;;
50249;SDS011;36133;42.522;27.456;2023-05-20T04:35:57;10.43;;;7.75;;
50249;SDS011;36133;42.522;27.456;2023-05-20T04:38:23;15.38;;;9.18;;
50249;SDS011;36133;42.522;27.456;2023-05-20T04:40:56;11.75;;;8.77;;
50249;SDS011;36133;42.522;27.456;2023-05-20T04:43:25;13.75;;;9.13;;
50249;SDS011;36133;42.522;27.456;2023-05-20T04:45:57;15.80;;;9.23;;
50249;SDS011;36133;42.522;27.456;2023-05-20T04:48:23;12.40;;;8.52;;
50249;SDS011;36133;42.522;27.456;2023-05-20T04:50:49;17.17;;;8.80;;
50249;SDS011;36133;42.522;27.456;2023-05-20T04:53:16;14.65;;;8.70;;
50249;SDS011;36133;42.522;27.456;2023-05-20T04:55:42;12.93;;;9.23;;
50249;SDS011;36133;42.522;27.456;2023-05-20T04:58:08;14.27;;;9.43;;
50249;SDS011;36133;42.522;27.456;2023-05-20T05:00:42;12.27;;;9.18;;
50249;SDS011;36133;42.522;27.456;2023-05-20T05:03:09;15.18;;;9.13;;
50249;SDS011;36133;42.522;27.456;2023-05-20T05:05:36;13.30;;;9.13;;
50249;SDS011;36133;42.522;27.456;2023-05-20T05:08:03;11.20;;;7.82;;
50249;SDS011;36133;42.522;27.456;2023-05-20T05:10:30;13.27;;;9.50;;
50249;SDS011;36133;42.522;27.456;2023-05-20T05:12:55;17.40;;;9.57;;
50249;SDS011;36133;42.522;27.456;2023-05-20T05:15:24;12.98;;;9.07;;
50249;SDS011;36133;42.522;27.456;2023-05-20T05:17:50;15.32;;;9.15;;
50249;SDS011;36133;42.522;27.456;2023-05-20T05:20:16;18.40;;;8.98;;
50249;SDS011;36133;42.522;27.456;2023-05-20T05:22:42;13.73;;;9.30;;
50249;SDS011;36133;42.522;27.456;2023-05-20T05:25:07;17.00;;;9.10;;
50249;SDS011;36133;42.522;27.456;2023-05-20T05:27:34;17.85;;;9.90;;
50249;SDS011;36133;42.522;27.456;2023-05-20T05:30:00;12.45;;;8.77;;
50249;SDS011;36133;42.522;27.456;2023-05-20T05:32:26;13.90;;;8.95;;
50249;SDS011;36133;42.522;27.456;2023-05-20T05:34:51;16.90;;;9.40;;
50249;SDS011;36133;42.522;27.456;2023-05-20T05:37:23;14.50;;;9.60;;
50249;SDS011;36133;42.522;27.456;2023-05-20T05:39:48;18.92;;;9.50;;
50249;SDS011;36133;42.522;27.456;2023-05-20T05:42:14;15.45;;;9.35;;
50249;SDS011;36133;42.522;27.456;2023-05-20T05:44:40;15.18;;;9.32;;
50249;SDS011;36133;42.522;27.456;2023-05-20T05:47:06;16.60;;;9.63;;
50249;SDS011;36133;42.522;27.456;2023-05-20T05:49:32;14.50;;;9.23;;
50249;SDS011;36133;42.522;27.456;2023-05-20T05:51:58;18.17;;;9.93;;
50249;SDS011;36133;42.522;27.456;2023-05-20T05:54:23;17.60;;;10.35;;
50249;SDS011;36133;42.522;27.456;2023-05-20T05:56:52;15.52;;;10.70;;
50249;SDS011;36133;42.522;27.456;2023-05-20T05:59:18;16.65;;;10.20;;
50249;SDS011;36133;42.522;27.456;2023-05-20T06:01:44;18.80;;;10.80;;
50249;SDS011;36133;42.522;27.456;2023-05-20T06:04:10;15.05;;;10.70;;
50249;SDS011;36133;42.522;27.456;2023-05-20T06:06:36;16.02;;;10.85;;
50249;SDS011;36133;42.522;27.456;2023-05-20T06:09:01;16.73;;;10.80;;
50249;SDS011;36133;42.522;27.456;2023-05-20T06:11:27;16.42;;;10.60;;
50249;SDS011;36133;42.522;27.456;2023-05-20T06:13:53;16.13;;;9.88;;
50249;SDS011;36133;42.522;27.456;2023-05-20T06:16:18;17.30;;;11.43;;
50249;SDS011;36133;42.522;27.456;2023-05-20T06:21:58;17.20;;;9.90;;
50249;SDS011;36133;42.522;27.456;2023-05-20T06:24:24;14.40;;;10.57;;
50249;SDS011;36133;42.522;27.456;2023-05-20T06:26:52;15.20;;;8.70;;
50249;SDS011;36133;42.522;27.456;2023-05-20T06:29:21;16.67;;;9.88;;
50249;SDS011;36133;42.522;27.456;2023-05-20T06:31:47;15.48;;;10.35;;
50249;SDS011;36133;42.522;27.456;2023-05-20T06:34:13;14.15;;;10.80;;
50249;SDS011;36133;42.522;27.456;2023-05-20T06:36:39;12.88;;;10.13;;
50249;SDS011;36133;42.522;27.456;2023-05-20T06:39:05;16.95;;;10.57;;
50249;SDS011;36133;42.522;27.456;2023-05-20T06:41:36;20.52;;;10.35;;
50249;SDS011;36133;42.522;27.456;2023-05-20T06:44:03;21.50;;;11.52;;
50249;SDS011;36133;42.522;27.456;2023-05-20T06:46:35;17.25;;;10.18;;
50249;SDS011;36133;42.522;27.456;2023-05-20T06:49:12;15.98;;;9.70;;
50249;SDS011;36133;42.522;27.456;2023-05-20T06:51:38;21.10;;;10.57;;
50249;SDS011;36133;42.522;27.456;2023-05-20T06:54:14;17.75;;;9.05;;
50249;SDS011;36133;42.522;27.456;2023-05-20T06:56:52;22.25;;;10.35;;
50249;SDS011;36133;42.522;27.456;2023-05-20T06:59:18;20.30;;;10.55;;
50249;SDS011;36133;42.522;27.456;2023-05-20T07:01:43;16.73;;;10.48;;
50249;SDS011;36133;42.522;27.456;2023-05-20T07:04:09;16.88;;;10.18;;
50249;SDS011;36133;42.522;27.456;2023-05-20T07:06:38;21.05;;;10.80;;
50249;SDS011;36133;42.522;27.456;2023-05-20T07:09:09;13.60;;;9.77;;
50249;SDS011;36133;42.522;27.456;2023-05-20T07:11:35;19.08;;;9.57;;
50249;SDS011;36133;42.522;27.456;2023-05-20T07:14:03;16.70;;;9.95;;
50249;SDS011;36133;42.522;27.456;2023-05-20T07:19:08;16.10;;;9.85;;
50249;SDS011;36133;42.522;27.456;2023-05-20T07:21:34;15.48;;;9.95;;
50249;SDS011;36133;42.522;27.456;2023-05-20T07:24:02;16.60;;;9.57;;
50249;SDS011;36133;42.522;27.456;2023-05-20T07:26:28;23.00;;;10.25;;
50249;SDS011;36133;42.522;27.456;2023-05-20T07:28:57;11.38;;;8.68;;
50249;SDS011;36133;42.522;27.456;2023-05-20T07:31:24;15.73;;;9.30;;
50249;SDS011;36133;42.522;27.456;2023-05-20T07:33:51;16.98;;;9.48;;
50249;SDS011;36133;42.522;27.456;2023-05-20T07:36:16;16.95;;;9.40;;
50249;SDS011;36133;42.522;27.456;2023-05-20T07:38:45;15.68;;;10.73;;
50249;SDS011;36133;42.522;27.456;2023-05-20T07:41:13;14.45;;;10.65;;
50249;SDS011;36133;42.522;27.456;2023-05-20T07:43:48;15.88;;;9.60;;
50249;SDS011;36133;42.522;27.456;2023-05-20T07:46:14;22.40;;;11.57;;
50249;SDS011;36133;42.522;27.456;2023-05-20T07:48:40;21.48;;;9.70;;
50249;SDS011;36133;42.522;27.456;2023-05-20T07:51:06;13.02;;;8.90;;
50249;SDS011;36133;42.522;27.456;2023-05-20T07:53:32;18.02;;;9.35;;
50249;SDS011;36133;42.522;27.456;2023-05-20T07:55:58;15.77;;;10.63;;
50249;SDS011;36133;42.522;27.456;2023-05-20T07:58:30;15.77;;;10.20;;
50249;SDS011;36133;42.522;27.456;2023-05-20T08:00:56;13.98;;;9.95;;
50249;SDS011;36133;42.522;27.456;2023-05-20T08:03:22;19.10;;;8.60;;
50249;SDS011;36133;42.522;27.456;2023-05-20T08:05:47;17.40;;;8.95;;
50249;SDS011;36133;42.522;27.456;2023-05-20T08:08:13;17.27;;;9.43;;
50249;SDS011;36133;42.522;27.456;2023-05-20T08:10:42;13.13;;;8.13;;
50249;SDS011;36133;42.522;27.456;2023-05-20T08:13:17;14.68;;;8.48;;
50249;SDS011;36133;42.522;27.456;2023-05-20T08:15:46;13.00;;;8.20;;
50249;SDS011;36133;42.522;27.456;2023-05-20T08:18:13;21.15;;;9.55;;
50249;SDS011;36133;42.522;27.456;2023-05-20T08:20:39;19.77;;;9.95;;
50249;SDS011;36133;42.522;27.456;2023-05-20T08:23:07;16.48;;;8.48;;
50249;SDS011;36133;42.522;27.456;2023-05-20T08:25:33;18.27;;;7.88;;
50249;SDS011;36133;42.522;27.456;2023-05-20T08:28:02;10.18;;;6.78;;
50249;SDS011;36133;42.522;27.456;2023-05-20T08:30:31;10.02;;;6.72;;
50249;SDS011;36133;42.522;27.456;2023-05-20T08:32:58;14.75;;;6.80;;
50249;SDS011;36133;42.522;27.456;2023-05-20T08:35:24;12.45;;;7.57;;
50249;SDS011;36133;42.522;27.456;2023-05-20T08:37:51;44.67;;;5.78;;
50249;SDS011;36133;42.522;27.456;2023-05-20T08:40:20;11.90;;;6.40;;
50249;SDS011;36133;42.522;27.456;2023-05-20T08:42:47;12.30;;;6.55;;
50249;SDS011;36133;42.522;27.456;2023-05-20T08:45:14;21.38;;;6.88;;
50249;SDS011;36133;42.522;27.456;2023-05-20T08:47:43;11.77;;;6.38;;
50249;SDS011;36133;42.522;27.456;2023-05-20T08:50:09;15.48;;;7.20;;
50249;SDS011;36133;42.522;27.456;2023-05-20T08:52:45;11.45;;;6.50;;
50249;SDS011;36133;42.522;27.456;2023-05-20T08:58:21;8.63;;;5.55;;
50249;SDS011;36133;42.522;27.456;2023-05-20T09:01:05;13.70;;;5.80;;
50249;SDS011;36133;42.522;27.456;2023-05-20T09:03:32;13.73;;;7.40;;
50249;SDS011;36133;42.522;27.456;2023-05-20T09:06:04;9.68;;;6.60;;
50249;SDS011;36133;42.522;27.456;2023-05-20T09:08:34;14.02;;;7.72;;
50249;SDS011;36133;42.522;27.456;2023-05-20T09:11:02;10.00;;;7.35;;
50249;SDS011;36133;42.522;27.456;2023-05-20T09:17:01;13.23;;;8.23;;
50249;SDS011;36133;42.522;27.456;2023-05-20T09:19:37;14.43;;;8.65;;
50249;SDS011;36133;42.522;27.456;2023-05-20T09:22:05;11.07;;;8.20;;
50249;SDS011;36133;42.522;27.456;2023-05-20T09:24:36;12.10;;;8.48;;
50249;SDS011;36133;42.522;27.456;2023-05-20T09:27:02;13.07;;;9.32;;
50249;SDS011;36133;42.522;27.456;2023-05-20T09:29:28;15.55;;;9.48;;
50249;SDS011;36133;42.522;27.456;2023-05-20T09:32:00;11.52;;;8.45;;
50249;SDS011;36133;42.522;27.456;2023-05-20T09:34:30;11.38;;;8.00;;
50249;SDS011;36133;42.522;27.456;2023-05-20T09:36:58;12.80;;;10.05;;
50249;SDS011;36133;42.522;27.456;2023-05-20T09:39:24;11.45;;;7.90;;
50249;SDS011;36133;42.522;27.456;2023-05-20T09:41:55;14.77;;;9.07;;
50249;SDS011;36133;42.522;27.456;2023-05-20T09:44:40;14.50;;;9.98;;
50249;SDS011;36133;42.522;27.456;2023-05-20T09:47:09;15.75;;;9.93;;
50249;SDS011;36133;42.522;27.456;2023-05-20T09:49:41;13.45;;;8.07;;
50249;SDS011;36133;42.522;27.456;2023-05-20T09:52:09;14.40;;;8.68;;
50249;SDS011;36133;42.522;27.456;2023-05-20T09:54:41;14.85;;;8.02;;
50249;SDS011;36133;42.522;27.456;2023-05-20T09:57:13;12.43;;;7.97;;
50249;SDS011;36133;42.522;27.456;2023-05-20T09:59:40;13.70;;;8.25;;
50249;SDS011;36133;42.522;27.456;2023-05-20T10:02:09;15.55;;;10.77;;
50249;SDS011;36133;42.522;27.456;2023-05-20T10:04:48;15.52;;;9.13;;
50249;SDS011;36133;42.522;27.456;2023-05-20T10:13:16;19.35;;;9.05;;
50249;SDS011;36133;42.522;27.456;2023-05-20T10:21:55;17.27;;;9.18;;
50249;SDS011;36133;42.522;27.456;2023-05-20T10:24:28;16.00;;;9.82;;
50249;SDS011;36133;42.522;27.456;2023-05-20T10:26:56;16.40;;;9.23;;
50249;SDS011;36133;42.522;27.456;2023-05-20T10:29:23;13.82;;;8.98;;
50249;SDS011;36133;42.522;27.456;2023-05-20T10:31:49;24.35;;;11.70;;
50249;SDS011;36133;42.522;27.456;2023-05-20T10:34:20;19.02;;;11.23;;
50249;SDS011;36133;42.522;27.456;2023-05-20T10:39:28;16.92;;;10.40;;
50249;SDS011;36133;42.522;27.456;2023-05-20T10:42:08;15.18;;;10.15;;
50249;SDS011;36133;42.522;27.456;2023-05-20T10:44:44;18.13;;;11.27;;
50249;SDS011;36133;42.522;27.456;2023-05-20T10:47:26;21.10;;;11.98;;
50249;SDS011;36133;42.522;27.456;2023-05-20T10:49:52;25.10;;;13.45;;
50249;SDS011;36133;42.522;27.456;2023-05-20T10:52:20;20.70;;;10.73;;
50249;SDS011;36133;42.522;27.456;2023-05-20T10:54:46;16.92;;;11.05;;
50249;SDS011;36133;42.522;27.456;2023-05-20T10:57:20;15.60;;;11.07;;
50249;SDS011;36133;42.522;27.456;2023-05-20T10:59:46;18.50;;;11.40;;
50249;SDS011;36133;42.522;27.456;2023-05-20T11:02:17;16.63;;;11.30;;
50249;SDS011;36133;42.522;27.456;2023-05-20T11:04:44;17.70;;;11.50;;
50249;SDS011;36133;42.522;27.456;2023-05-20T11:07:11;15.55;;;11.00;;
50249;SDS011;36133;42.522;27.456;2023-05-20T11:09:37;18.88;;;11.38;;
50249;SDS011;36133;42.522;27.456;2023-05-20T11:12:03;15.43;;;11.60;;
50249;SDS011;36133;42.522;27.456;2023-05-20T11:14:30;17.58;;;12.30;;
50249;SDS011;36133;42.522;27.456;2023-05-20T11:16:57;14.65;;;11.20;;
50249;SDS011;36133;42.522;27.456;2023-05-20T11:19:26;22.17;;;12.52;;
50249;SDS011;36133;42.522;27.456;2023-05-20T11:21:52;19.55;;;12.85;;
50249;SDS011;36133;42.522;27.456;2023-05-20T11:24:22;16.75;;;11.73;;
50249;SDS011;36133;42.522;27.456;2023-05-20T11:26:55;18.95;;;12.23;;
50249;SDS011;36133;42.522;27.456;2023-05-20T11:29:27;14.70;;;11.73;;
50249;SDS011;36133;42.522;27.456;2023-05-20T11:31:56;17.23;;;13.57;;
50249;SDS011;36133;42.522;27.456;2023-05-20T11:34:23;16.40;;;12.07;;
50249;SDS011;36133;42.522;27.456;2023-05-20T11:36:56;16.90;;;11.25;;
50249;SDS011;36133;42.522;27.456;2023-05-20T11:39:22;16.10;;;11.55;;
50249;SDS011;36133;42.522;27.456;2023-05-20T11:41:51;17.48;;;12.43;;
50249;SDS011;36133;42.522;27.456;2023-05-20T11:44:18;15.95;;;11.43;;
50249;SDS011;36133;42.522;27.456;2023-05-20T11:46:45;14.05;;;11.27;;
50249;SDS011;36133;42.522;27.456;2023-05-20T11:49:12;16.13;;;11.85;;
50249;SDS011;36133;42.522;27.456;2023-05-20T11:51:39;20.25;;;11.80;;
50249;SDS011;36133;42.522;27.456;2023-05-20T11:54:08;23.05;;;12.43;;
50249;SDS011;36133;42.522;27.456;2023-05-20T11:56:38;15.35;;;11.52;;
50249;SDS011;36133;42.522;27.456;2023-05-20T11:59:08;17.80;;;11.10;;
50249;SDS011;36133;42.522;27.456;2023-05-20T12:01:36;17.00;;;11.00;;
50249;SDS011;36133;42.522;27.456;2023-05-20T12:04:07;16.50;;;12.60;;
50249;SDS011;36133;42.522;27.456;2023-05-20T12:06:38;22.15;;;12.70;;
50249;SDS011;36133;42.522;27.456;2023-05-20T12:09:25;17.65;;;11.93;;
50249;SDS011;36133;42.522;27.456;2023-05-20T12:11:53;13.48;;;10.95;;
50249;SDS011;36133;42.522;27.456;2023-05-20T12:14:23;13.73;;;10.48;;
50249;SDS011;36133;42.522;27.456;2023-05-20T12:16:48;11.88;;;9.30;;
50249;SDS011;36133;42.522;27.456;2023-05-20T12:19:17;15.60;;;9.52;;
50249;SDS011;36133;42.522;27.456;2023-05-20T12:21:43;10.45;;;8.43;;
50249;SDS011;36133;42.522;27.456;2023-05-20T12:24:11;16.55;;;8.65;;
50249;SDS011;36133;42.522;27.456;2023-05-20T12:26:37;14.32;;;9.15;;
50249;SDS011;36133;42.522;27.456;2023-05-20T12:29:18;12.68;;;7.95;;
50249;SDS011;36133;42.522;27.456;2023-05-20T12:32:18;16.23;;;8.07;;
50249;SDS011;36133;42.522;27.456;2023-05-20T12:34:45;9.32;;;7.68;;
50249;SDS011;36133;42.522;27.456;2023-05-20T12:40:18;11.65;;;7.50;;
50249;SDS011;36133;42.522;27.456;2023-05-20T12:42:43;10.27;;;7.82;;
50249;SDS011;36133;42.522;27.456;2023-05-20T12:45:27;12.02;;;7.35;;
50249;SDS011;36133;42.522;27.456;2023-05-20T12:47:53;22.98;;;8.25;;
50249;SDS011;36133;42.522;27.456;2023-05-20T12:50:20;12.77;;;7.70;;
50249;SDS011;36133;42.522;27.456;2023-05-20T12:52:46;10.32;;;7.35;;
50249;SDS011;36133;42.522;27.456;2023-05-20T12:55:15;14.38;;;7.45;;
50249;SDS011;36133;42.522;27.456;2023-05-20T12:57:42;14.55;;;7.20;;
50249;SDS011;36133;42.522;27.456;2023-05-20T13:00:11;10.35;;;7.18;;
50249;SDS011;36133;42.522;27.456;2023-05-20T13:02:38;11.65;;;7.72;;
50249;SDS011;36133;42.522;27.456;2023-05-20T13:05:06;9.38;;;6.15;;
50249;SDS011;36133;42.522;27.456;2023-05-20T13:07:31;15.95;;;7.18;;
50249;SDS011;36133;42.522;27.456;2023-05-20T13:09:58;11.27;;;6.05;;
50249;SDS011;36133;42.522;27.456;2023-05-20T13:12:29;10.25;;;6.15;;
50249;SDS011;36133;42.522;27.456;2023-05-20T13:15:16;9.38;;;6.13;;
50249;SDS011;36133;42.522;27.456;2023-05-20T13:17:42;16.42;;;5.75;;
50249;SDS011;36133;42.522;27.456;2023-05-20T13:20:08;11.50;;;5.25;;
50249;SDS011;36133;42.522;27.456;2023-05-20T13:22:35;9.85;;;5.03;;
50249;SDS011;36133;42.522;27.456;2023-05-20T13:25:00;10.57;;;4.72;;
50249;SDS011;36133;42.522;27.456;2023-05-20T13:27:26;8.93;;;4.97;;
50249;SDS011;36133;42.522;27.456;2023-05-20T13:29:52;11.63;;;5.00;;
50249;SDS011;36133;42.522;27.456;2023-05-20T13:32:17;12.25;;;4.85;;
50249;SDS011;36133;42.522;27.456;2023-05-20T13:34:46;8.32;;;4.82;;
50249;SDS011;36133;42.522;27.456;2023-05-20T13:37:11;9.93;;;5.03;;
50249;SDS011;36133;42.522;27.456;2023-05-20T13:39:39;10.02;;;4.80;;
50249;SDS011;36133;42.522;27.456;2023-05-20T13:42:05;10.73;;;4.57;;
50249;SDS011;36133;42.522;27.456;2023-05-20T13:44:30;10.10;;;4.82;;
50249;SDS011;36133;42.522;27.456;2023-05-20T13:46:56;10.48;;;5.43;;
50249;SDS011;36133;42.522;27.456;2023-05-20T13:49:22;17.08;;;6.40;;
50249;SDS011;36133;42.522;27.456;2023-05-20T13:51:52;12.60;;;6.18;;
50249;SDS011;36133;42.522;27.456;2023-05-20T13:54:17;16.63;;;8.68;;
50249;SDS011;36133;42.522;27.456;2023-05-20T13:56:46;16.90;;;8.32;;
50249;SDS011;36133;42.522;27.456;2023-05-20T13:59:15;17.30;;;8.70;;
50249;SDS011;36133;42.522;27.456;2023-05-20T14:01:43;14.65;;;8.18;;
50249;SDS011;36133;42.522;27.456;2023-05-20T14:04:12;18.73;;;8.48;;
50249;SDS011;36133;42.522;27.456;2023-05-20T14:06:38;16.23;;;7.88;;
50249;SDS011;36133;42.522;27.456;2023-05-20T14:09:05;20.42;;;9.18;;
50249;SDS011;36133;42.522;27.456;2023-05-20T14:11:48;16.67;;;8.60;;
50249;SDS011;36133;42.522;27.456;2023-05-20T14:14:15;16.15;;;8.90;;
50249;SDS011;36133;42.522;27.456;2023-05-20T14:16:45;18.95;;;9.10;;
50249;SDS011;36133;42.522;27.456;2023-05-20T14:19:16;18.88;;;9.50;;
50249;SDS011;36133;42.522;27.456;2023-05-20T14:21:44;18.63;;;9.32;;
50249;SDS011;36133;42.522;27.456;2023-05-20T14:24:13;24.33;;;9.80;;
50249;SDS011;36133;42.522;27.456;2023-05-20T14:26:39;15.23;;;8.90;;
50249;SDS011;36133;42.522;27.456;2023-05-20T14:29:07;20.88;;;9.57;;
50249;SDS011;36133;42.522;27.456;2023-05-20T14:31:34;22.00;;;9.52;;
50249;SDS011;36133;42.522;27.456;2023-05-20T14:34:00;18.80;;;9.63;;
50249;SDS011;36133;42.522;27.456;2023-05-20T14:36:25;22.88;;;10.07;;
50249;SDS011;36133;42.522;27.456;2023-05-20T14:38:51;22.17;;;10.30;;
50249;SDS011;36133;42.522;27.456;2023-05-20T14:41:20;20.50;;;10.23;;
50249;SDS011;36133;42.522;27.456;2023-05-20T14:43:48;22.52;;;10.15;;
50249;SDS011;36133;42.522;27.456;2023-05-20T14:46:24;21.23;;;10.05;;
50249;SDS011;36133;42.522;27.456;2023-05-20T14:48:49;19.42;;;9.65;;
50249;SDS011;36133;42.522;27.456;2023-05-20T14:51:15;24.23;;;10.20;;
50249;SDS011;36133;42.522;27.456;2023-05-20T14:53:52;30.25;;;10.35;;